sensor_id;sensor_type;location;lat;lon;timestamp;P1;durP1;ratioP1;P2;durP2;ratioP2
9052;SDS011;4561;47.450;7.516;2024-03-23T00:55:17;2.60;;;1.47;;
9052;SDS011;4561;47.450;7.516;2024-03-23T00:58:39;2.50;;;1.40;;
9052;SDS011;4561;47.450;7.516;2024-03-23T01:02:02;2.57;;;1.60;;
9052;SDS011;4561;47.450;7.516;2024-03-23T01:05:23;1.67;;;1.37;;
9052;SDS011;4561;47.450;7.516;2024-03-23T01:08:43;1.70;;;1.60;;
9052;SDS011;4561;47.450;7.516;2024-03-23T01:12:03;5.30;;;1.57;;
9052;SDS011;4561;47.450;7.516;2024-03-23T01:15:27;3.77;;;1.90;;
9052;SDS011;4561;47.450;7.516;2024-03-23T01:18:50;3.20;;;1.77;;
9052;SDS011;4561;47.450;7.516;2024-03-23T01:22:10;2.90;;;1.57;;
9052;SDS011;4561;47.450;7.516;2024-03-23T01:25:31;4.93;;;2.03;;
9052;SDS011;4561;47.450;7.516;2024-03-23T01:28:51;2.30;;;1.50;;
9052;SDS011;4561;47.450;7.516;2024-03-23T01:32:11;2.00;;;1.80;;
9052;SDS011;4561;47.450;7.516;2024-03-23T01:35:34;4.47;;;2.17;;
9052;SDS011;4561;47.450;7.516;2024-03-23T01:38:54;2.20;;;1.47;;
9052;SDS011;4561;47.450;7.516;2024-03-23T01:42:15;1.97;;;1.40;;
9052;SDS011;4561;47.450;7.516;2024-03-23T01:45:35;2.47;;;1.80;;
9052;SDS011;4561;47.450;7.516;2024-03-23T01:48:56;4.13;;;1.70;;
9052;SDS011;4561;47.450;7.516;2024-03-23T01:52:17;3.60;;;2.07;;
9052;SDS011;4561;47.450;7.516;2024-03-23T01:55:37;2.97;;;1.90;;
9052;SDS011;4561;47.450;7.516;2024-03-23T01:58:59;3.70;;;2.07;;
9052;SDS011;4561;47.450;7.516;2024-03-23T02:02:19;3.80;;;1.97;;
9052;SDS011;4561;47.450;7.516;2024-03-23T02:05:39;4.57;;;2.20;;
9052;SDS011;4561;47.450;7.516;2024-03-23T02:09:00;2.53;;;1.90;;
9052;SDS011;4561;47.450;7.516;2024-03-23T02:12:20;6.20;;;2.37;;
9052;SDS011;4561;47.450;7.516;2024-03-23T02:15:46;3.73;;;2.00;;
9052;SDS011;4561;47.450;7.516;2024-03-23T02:19:09;5.30;;;2.00;;
9052;SDS011;4561;47.450;7.516;2024-03-23T02:22:38;2.87;;;1.80;;
9052;SDS011;4561;47.450;7.516;2024-03-23T02:25:59;3.23;;;2.20;;
9052;SDS011;4561;47.450;7.516;2024-03-23T02:29:22;6.40;;;2.10;;
9052;SDS011;4561;47.450;7.516;2024-03-23T02:32:45;3.03;;;1.70;;
9052;SDS011;4561;47.450;7.516;2024-03-23T02:36:06;5.07;;;2.17;;
9052;SDS011;4561;47.450;7.516;2024-03-23T02:39:26;3.83;;;1.90;;
9052;SDS011;4561;47.450;7.516;2024-03-23T02:42:46;1.87;;;1.70;;
9052;SDS011;4561;47.450;7.516;2024-03-23T02:46:07;2.40;;;1.90;;
9052;SDS011;4561;47.450;7.516;2024-03-23T02:49:29;2.20;;;1.90;;
9052;SDS011;4561;47.450;7.516;2024-03-23T02:52:50;5.00;;;2.30;;
9052;SDS011;4561;47.450;7.516;2024-03-23T02:56:10;3.03;;;2.10;;
9052;SDS011;4561;47.450;7.516;2024-03-23T02:59:36;3.30;;;1.90;;
9052;SDS011;4561;47.450;7.516;2024-03-23T03:02:56;2.97;;;1.90;;
9052;SDS011;4561;47.450;7.516;2024-03-23T03:06:26;3.43;;;1.87;;
9052;SDS011;4561;47.450;7.516;2024-03-23T03:09:49;4.00;;;2.00;;
9052;SDS011;4561;47.450;7.516;2024-03-23T03:13:09;3.43;;;1.63;;
9052;SDS011;4561;47.450;7.516;2024-03-23T03:16:34;4.90;;;2.07;;
9052;SDS011;4561;47.450;7.516;2024-03-23T03:19:54;2.23;;;1.80;;
9052;SDS011;4561;47.450;7.516;2024-03-23T03:23:15;1.87;;;1.63;;
9052;SDS011;4561;47.450;7.516;2024-03-23T03:26:39;3.50;;;1.80;;
9052;SDS011;4561;47.450;7.516;2024-03-23T03:30:00;2.83;;;1.87;;
9052;SDS011;4561;47.450;7.516;2024-03-23T03:33:26;4.50;;;1.97;;
9052;SDS011;4561;47.450;7.516;2024-03-23T03:36:47;3.27;;;2.07;;
9052;SDS011;4561;47.450;7.516;2024-03-23T03:40:07;3.50;;;1.60;;
9052;SDS011;4561;47.450;7.516;2024-03-23T03:43:31;4.37;;;1.77;;
9052;SDS011;4561;47.450;7.516;2024-03-23T03:46:51;2.47;;;1.60;;
9052;SDS011;4561;47.450;7.516;2024-03-23T03:50:11;3.67;;;1.60;;
9052;SDS011;4561;47.450;7.516;2024-03-23T03:53:32;4.00;;;1.83;;
9052;SDS011;4561;47.450;7.516;2024-03-23T03:56:52;4.50;;;1.53;;
9052;SDS011;4561;47.450;7.516;2024-03-23T04:00:13;2.40;;;1.53;;
9052;SDS011;4561;47.450;7.516;2024-03-23T04:03:36;5.27;;;1.70;;
9052;SDS011;4561;47.450;7.516;2024-03-23T04:06:59;3.97;;;1.60;;
9052;SDS011;4561;47.450;7.516;2024-03-23T04:10:20;4.03;;;1.70;;
9052;SDS011;4561;47.450;7.516;2024-03-23T04:13:41;5.37;;;1.77;;
9052;SDS011;4561;47.450;7.516;2024-03-23T04:17:04;4.17;;;2.43;;
9052;SDS011;4561;47.450;7.516;2024-03-23T04:20:26;3.90;;;2.10;;
9052;SDS011;4561;47.450;7.516;2024-03-23T04:23:46;3.40;;;2.20;;
9052;SDS011;4561;47.450;7.516;2024-03-23T04:27:07;3.37;;;2.20;;
9052;SDS011;4561;47.450;7.516;2024-03-23T04:30:29;2.50;;;1.70;;
9052;SDS011;4561;47.450;7.516;2024-03-23T04:33:52;3.13;;;1.80;;
9052;SDS011;4561;47.450;7.516;2024-03-23T04:37:13;3.67;;;1.97;;
9052;SDS011;4561;47.450;7.516;2024-03-23T04:40:36;3.07;;;2.27;;
9052;SDS011;4561;47.450;7.516;2024-03-23T04:43:57;3.27;;;2.30;;
9052;SDS011;4561;47.450;7.516;2024-03-23T04:47:19;4.67;;;2.10;;
9052;SDS011;4561;47.450;7.516;2024-03-23T04:50:40;3.33;;;2.17;;
9052;SDS011;4561;47.450;7.516;2024-03-23T04:54:01;4.93;;;2.40;;
9052;SDS011;4561;47.450;7.516;2024-03-23T04:57:21;3.13;;;2.40;;
9052;SDS011;4561;47.450;7.516;2024-03-23T05:00:44;2.60;;;2.30;;
9052;SDS011;4561;47.450;7.516;2024-03-23T05:04:04;3.97;;;3.10;;
9052;SDS011;4561;47.450;7.516;2024-03-23T05:07:25;5.27;;;3.13;;
9052;SDS011;4561;47.450;7.516;2024-03-23T05:10:47;3.47;;;3.17;;
9052;SDS011;4561;47.450;7.516;2024-03-23T05:14:08;4.00;;;3.40;;
9052;SDS011;4561;47.450;7.516;2024-03-23T05:17:28;4.63;;;3.63;;
9052;SDS011;4561;47.450;7.516;2024-03-23T05:20:48;4.80;;;4.30;;
9052;SDS011;4561;47.450;7.516;2024-03-23T05:24:09;7.33;;;4.70;;
9052;SDS011;4561;47.450;7.516;2024-03-23T05:27:32;5.30;;;4.80;;
9052;SDS011;4561;47.450;7.516;2024-03-23T05:30:56;6.07;;;5.40;;
9052;SDS011;4561;47.450;7.516;2024-03-23T05:34:19;5.33;;;4.83;;
9052;SDS011;4561;47.450;7.516;2024-03-23T05:37:42;5.17;;;4.63;;
9052;SDS011;4561;47.450;7.516;2024-03-23T05:41:02;6.27;;;5.30;;
9052;SDS011;4561;47.450;7.516;2024-03-23T05:44:23;6.77;;;5.47;;
9052;SDS011;4561;47.450;7.516;2024-03-23T05:47:45;5.80;;;5.30;;
9052;SDS011;4561;47.450;7.516;2024-03-23T05:51:06;6.10;;;4.60;;
9052;SDS011;4561;47.450;7.516;2024-03-23T05:54:26;5.47;;;4.00;;
9052;SDS011;4561;47.450;7.516;2024-03-23T05:57:47;3.97;;;3.57;;
9052;SDS011;4561;47.450;7.516;2024-03-23T06:01:10;4.13;;;3.73;;
9052;SDS011;4561;47.450;7.516;2024-03-23T06:04:30;4.20;;;3.83;;
9052;SDS011;4561;47.450;7.516;2024-03-23T06:07:50;4.27;;;3.87;;
9052;SDS011;4561;47.450;7.516;2024-03-23T06:11:11;4.70;;;3.77;;
9052;SDS011;4561;47.450;7.516;2024-03-23T06:14:31;4.27;;;3.87;;
9052;SDS011;4561;47.450;7.516;2024-03-23T06:17:52;4.63;;;4.17;;
9052;SDS011;4561;47.450;7.516;2024-03-23T06:21:13;3.80;;;3.40;;
9052;SDS011;4561;47.450;7.516;2024-03-23T06:24:34;4.20;;;3.80;;
9052;SDS011;4561;47.450;7.516;2024-03-23T06:27:59;4.00;;;3.60;;
9052;SDS011;4561;47.450;7.516;2024-03-23T06:31:21;3.87;;;3.40;;
9052;SDS011;4561;47.450;7.516;2024-03-23T06:34:41;4.57;;;3.87;;
9052;SDS011;4561;47.450;7.516;2024-03-23T06:38:04;5.00;;;4.47;;
9052;SDS011;4561;47.450;7.516;2024-03-23T06:41:25;4.20;;;3.80;;
9052;SDS011;4561;47.450;7.516;2024-03-23T06:44:46;4.30;;;3.73;;
9052;SDS011;4561;47.450;7.516;2024-03-23T06:48:09;3.17;;;2.10;;
9052;SDS011;4561;47.450;7.516;2024-03-23T06:51:29;1.47;;;1.37;;
9052;SDS011;4561;47.450;7.516;2024-03-23T06:54:49;0.90;;;0.80;;
9052;SDS011;4561;47.450;7.516;2024-03-23T06:58:10;0.97;;;0.80;;
9052;SDS011;4561;47.450;7.516;2024-03-23T07:01:30;0.70;;;0.70;;
9052;SDS011;4561;47.450;7.516;2024-03-23T07:04:51;0.60;;;0.60;;
9052;SDS011;4561;47.450;7.516;2024-03-23T07:08:11;0.80;;;0.60;;
9052;SDS011;4561;47.450;7.516;2024-03-23T07:11:32;0.67;;;0.60;;
9052;SDS011;4561;47.450;7.516;2024-03-23T07:14:54;1.70;;;0.40;;
9052;SDS011;4561;47.450;7.516;2024-03-23T07:18:17;1.63;;;0.73;;
9052;SDS011;4561;47.450;7.516;2024-03-23T07:21:40;2.00;;;0.80;;
9052;SDS011;4561;47.450;7.516;2024-03-23T07:25:01;2.40;;;0.80;;
9052;SDS011;4561;47.450;7.516;2024-03-23T07:28:25;2.27;;;1.03;;
9052;SDS011;4561;47.450;7.516;2024-03-23T07:31:51;2.03;;;1.17;;
9052;SDS011;4561;47.450;7.516;2024-03-23T07:35:12;3.27;;;1.43;;
9052;SDS011;4561;47.450;7.516;2024-03-23T07:38:32;3.37;;;1.40;;
9052;SDS011;4561;47.450;7.516;2024-03-23T07:41:53;4.40;;;1.60;;
9052;SDS011;4561;47.450;7.516;2024-03-23T07:45:13;4.83;;;2.00;;
9052;SDS011;4561;47.450;7.516;2024-03-23T07:48:33;6.27;;;2.43;;
9052;SDS011;4561;47.450;7.516;2024-03-23T07:51:56;4.57;;;2.60;;
9052;SDS011;4561;47.450;7.516;2024-03-23T07:55:19;6.03;;;2.40;;
9052;SDS011;4561;47.450;7.516;2024-03-23T07:58:39;5.33;;;2.03;;
9052;SDS011;4561;47.450;7.516;2024-03-23T08:02:02;5.40;;;1.73;;
9052;SDS011;4561;47.450;7.516;2024-03-23T08:05:25;7.30;;;2.17;;
9052;SDS011;4561;47.450;7.516;2024-03-23T08:08:48;4.70;;;2.10;;
9052;SDS011;4561;47.450;7.516;2024-03-23T08:12:19;8.03;;;2.33;;
9052;SDS011;4561;47.450;7.516;2024-03-23T08:15:40;7.10;;;2.20;;
9052;SDS011;4561;47.450;7.516;2024-03-23T08:19:02;7.80;;;2.37;;
9052;SDS011;4561;47.450;7.516;2024-03-23T08:22:23;8.17;;;2.80;;
9052;SDS011;4561;47.450;7.516;2024-03-23T08:25:46;5.93;;;2.50;;
9052;SDS011;4561;47.450;7.516;2024-03-23T08:29:07;5.90;;;2.47;;
9052;SDS011;4561;47.450;7.516;2024-03-23T08:32:27;7.17;;;2.40;;
9052;SDS011;4561;47.450;7.516;2024-03-23T08:35:54;9.23;;;2.50;;
9052;SDS011;4561;47.450;7.516;2024-03-23T08:39:42;5.50;;;1.80;;
9052;SDS011;4561;47.450;7.516;2024-03-23T08:43:05;5.73;;;2.13;;
9052;SDS011;4561;47.450;7.516;2024-03-23T08:46:26;7.00;;;2.23;;
9052;SDS011;4561;47.450;7.516;2024-03-23T08:49:51;5.37;;;2.00;;
9052;SDS011;4561;47.450;7.516;2024-03-23T08:53:12;9.60;;;2.10;;
9052;SDS011;4561;47.450;7.516;2024-03-23T08:56:32;8.83;;;2.50;;
9052;SDS011;4561;47.450;7.516;2024-03-23T08:59:53;5.87;;;2.60;;
9052;SDS011;4561;47.450;7.516;2024-03-23T09:03:13;8.90;;;2.53;;
9052;SDS011;4561;47.450;7.516;2024-03-23T09:06:33;8.03;;;2.60;;
9052;SDS011;4561;47.450;7.516;2024-03-23T09:09:54;6.87;;;2.83;;
9052;SDS011;4561;47.450;7.516;2024-03-23T09:13:14;7.27;;;2.57;;
9052;SDS011;4561;47.450;7.516;2024-03-23T09:16:36;6.73;;;2.80;;
9052;SDS011;4561;47.450;7.516;2024-03-23T09:19:56;8.67;;;2.63;;
9052;SDS011;4561;47.450;7.516;2024-03-23T09:23:17;11.53;;;2.23;;
9052;SDS011;4561;47.450;7.516;2024-03-23T09:26:37;8.13;;;2.93;;
9052;SDS011;4561;47.450;7.516;2024-03-23T09:30:00;7.23;;;2.70;;
9052;SDS011;4561;47.450;7.516;2024-03-23T09:33:20;6.23;;;2.30;;
9052;SDS011;4561;47.450;7.516;2024-03-23T09:36:43;7.97;;;2.87;;
9052;SDS011;4561;47.450;7.516;2024-03-23T09:40:06;8.73;;;2.70;;
9052;SDS011;4561;47.450;7.516;2024-03-23T09:43:32;5.93;;;2.33;;
9052;SDS011;4561;47.450;7.516;2024-03-23T09:46:52;6.23;;;2.47;;
9052;SDS011;4561;47.450;7.516;2024-03-23T09:50:14;6.70;;;2.37;;
9052;SDS011;4561;47.450;7.516;2024-03-23T09:53:35;6.60;;;2.33;;
9052;SDS011;4561;47.450;7.516;2024-03-23T09:56:57;7.13;;;2.67;;
9052;SDS011;4561;47.450;7.516;2024-03-23T10:00:17;5.87;;;2.47;;
9052;SDS011;4561;47.450;7.516;2024-03-23T10:03:44;5.35;;;2.33;;
9052;SDS011;4561;47.450;7.516;2024-03-23T10:07:12;6.60;;;2.63;;
9052;SDS011;4561;47.450;7.516;2024-03-23T10:10:38;4.18;;;2.20;;
9052;SDS011;4561;47.450;7.516;2024-03-23T10:13:58;6.20;;;2.45;;
9052;SDS011;4561;47.450;7.516;2024-03-23T10:17:19;7.70;;;2.60;;
9052;SDS011;4561;47.450;7.516;2024-03-23T10:20:44;4.00;;;1.88;;
9052;SDS011;4561;47.450;7.516;2024-03-23T10:24:08;4.50;;;1.88;;
9052;SDS011;4561;47.450;7.516;2024-03-23T10:27:32;4.43;;;2.25;;
9052;SDS011;4561;47.450;7.516;2024-03-23T10:30:54;5.13;;;2.03;;
9052;SDS011;4561;47.450;7.516;2024-03-23T10:34:24;3.67;;;2.10;;
9052;SDS011;4561;47.450;7.516;2024-03-23T10:37:45;5.00;;;2.38;;
9052;SDS011;4561;47.450;7.516;2024-03-23T10:41:12;8.05;;;2.47;;
9052;SDS011;4561;47.450;7.516;2024-03-23T10:44:32;4.78;;;1.73;;
9052;SDS011;4561;47.450;7.516;2024-03-23T10:47:53;3.28;;;1.73;;
9052;SDS011;4561;47.450;7.516;2024-03-23T10:51:14;3.90;;;1.95;;
9052;SDS011;4561;47.450;7.516;2024-03-23T10:54:37;3.70;;;1.75;;
9052;SDS011;4561;47.450;7.516;2024-03-23T10:57:57;4.22;;;2.63;;
9052;SDS011;4561;47.450;7.516;2024-03-23T11:01:19;6.10;;;2.85;;
9052;SDS011;4561;47.450;7.516;2024-03-23T11:04:42;4.15;;;1.80;;
9052;SDS011;4561;47.450;7.516;2024-03-23T11:08:04;12.55;;;11.10;;
9052;SDS011;4561;47.450;7.516;2024-03-23T11:11:25;2.72;;;1.67;;
9052;SDS011;4561;47.450;7.516;2024-03-23T11:14:46;4.63;;;1.63;;
9052;SDS011;4561;47.450;7.516;2024-03-23T11:18:09;4.03;;;1.43;;
9052;SDS011;4561;47.450;7.516;2024-03-23T11:25:30;5.33;;;2.00;;
9052;SDS011;4561;47.450;7.516;2024-03-23T11:28:50;6.03;;;2.60;;
9052;SDS011;4561;47.450;7.516;2024-03-23T11:32:29;8.10;;;3.77;;
9052;SDS011;4561;47.450;7.516;2024-03-23T11:35:51;8.80;;;2.80;;
9052;SDS011;4561;47.450;7.516;2024-03-23T11:39:12;5.70;;;2.00;;
9052;SDS011;4561;47.450;7.516;2024-03-23T11:42:34;4.73;;;2.10;;
9052;SDS011;4561;47.450;7.516;2024-03-23T11:45:55;8.33;;;2.40;;
9052;SDS011;4561;47.450;7.516;2024-03-23T11:49:28;7.80;;;2.20;;
9052;SDS011;4561;47.450;7.516;2024-03-23T11:52:52;5.97;;;2.20;;
9052;SDS011;4561;47.450;7.516;2024-03-23T11:56:12;7.17;;;2.00;;
9052;SDS011;4561;47.450;7.516;2024-03-23T12:03:04;6.93;;;2.30;;
9052;SDS011;4561;47.450;7.516;2024-03-23T12:06:24;6.73;;;2.13;;
9052;SDS011;4561;47.450;7.516;2024-03-23T12:09:46;4.93;;;1.83;;
9052;SDS011;4561;47.450;7.516;2024-03-23T12:13:06;6.43;;;2.30;;
9052;SDS011;4561;47.450;7.516;2024-03-23T12:16:27;6.03;;;1.80;;
9052;SDS011;4561;47.450;7.516;2024-03-23T12:19:48;6.20;;;1.80;;
9052;SDS011;4561;47.450;7.516;2024-03-23T12:23:09;8.97;;;1.97;;
9052;SDS011;4561;47.450;7.516;2024-03-23T12:26:31;6.07;;;1.80;;
9052;SDS011;4561;47.450;7.516;2024-03-23T12:29:55;5.97;;;1.97;;
9052;SDS011;4561;47.450;7.516;2024-03-23T12:33:15;4.50;;;1.73;;
9052;SDS011;4561;47.450;7.516;2024-03-23T12:36:36;5.90;;;1.83;;
9052;SDS011;4561;47.450;7.516;2024-03-23T12:39:56;6.20;;;1.97;;
9052;SDS011;4561;47.450;7.516;2024-03-23T12:43:21;3.70;;;1.50;;
9052;SDS011;4561;47.450;7.516;2024-03-23T12:46:42;5.80;;;1.60;;
9052;SDS011;4561;47.450;7.516;2024-03-23T12:50:02;5.13;;;1.73;;
9052;SDS011;4561;47.450;7.516;2024-03-23T12:53:23;5.97;;;1.60;;
9052;SDS011;4561;47.450;7.516;2024-03-23T12:56:43;5.13;;;1.60;;
9052;SDS011;4561;47.450;7.516;2024-03-23T13:00:06;5.40;;;1.70;;
9052;SDS011;4561;47.450;7.516;2024-03-23T13:03:27;7.00;;;1.67;;
9052;SDS011;4561;47.450;7.516;2024-03-23T13:06:49;4.93;;;1.70;;
9052;SDS011;4561;47.450;7.516;2024-03-23T13:10:14;5.97;;;2.00;;
9052;SDS011;4561;47.450;7.516;2024-03-23T13:13:37;6.23;;;1.70;;
9052;SDS011;4561;47.450;7.516;2024-03-23T13:16:58;7.37;;;1.80;;
9052;SDS011;4561;47.450;7.516;2024-03-23T13:20:22;7.07;;;1.67;;
9052;SDS011;4561;47.450;7.516;2024-03-23T13:23:42;6.63;;;1.40;;
9052;SDS011;4561;47.450;7.516;2024-03-23T13:27:05;5.40;;;1.40;;
9052;SDS011;4561;47.450;7.516;2024-03-23T13:30:29;5.07;;;1.70;;
9052;SDS011;4561;47.450;7.516;2024-03-23T13:33:53;2.93;;;1.50;;
9052;SDS011;4561;47.450;7.516;2024-03-23T13:37:13;5.20;;;1.33;;
9052;SDS011;4561;47.450;7.516;2024-03-23T13:40:33;3.93;;;1.40;;
9052;SDS011;4561;47.450;7.516;2024-03-23T13:43:54;3.90;;;1.30;;
9052;SDS011;4561;47.450;7.516;2024-03-23T13:47:14;4.50;;;1.40;;
9052;SDS011;4561;47.450;7.516;2024-03-23T13:50:37;3.10;;;1.37;;
9052;SDS011;4561;47.450;7.516;2024-03-23T13:53:57;4.73;;;1.77;;
9052;SDS011;4561;47.450;7.516;2024-03-23T13:57:20;3.70;;;1.13;;
9052;SDS011;4561;47.450;7.516;2024-03-23T14:00:46;3.30;;;1.07;;
9052;SDS011;4561;47.450;7.516;2024-03-23T14:04:06;3.77;;;1.30;;
9052;SDS011;4561;47.450;7.516;2024-03-23T14:07:26;3.30;;;1.50;;
9052;SDS011;4561;47.450;7.516;2024-03-23T14:10:47;2.77;;;1.33;;
9052;SDS011;4561;47.450;7.516;2024-03-23T14:14:09;5.50;;;1.80;;
9052;SDS011;4561;47.450;7.516;2024-03-23T14:17:32;4.67;;;1.70;;
9052;SDS011;4561;47.450;7.516;2024-03-23T14:20:56;5.63;;;1.50;;
9052;SDS011;4561;47.450;7.516;2024-03-23T14:24:18;4.50;;;1.37;;
9052;SDS011;4561;47.450;7.516;2024-03-23T14:27:38;3.13;;;1.27;;
9052;SDS011;4561;47.450;7.516;2024-03-23T14:30:59;2.73;;;1.33;;
9052;SDS011;4561;47.450;7.516;2024-03-23T14:34:19;2.50;;;1.10;;
9052;SDS011;4561;47.450;7.516;2024-03-23T14:37:39;2.93;;;1.63;;
9052;SDS011;4561;47.450;7.516;2024-03-23T14:41:02;3.47;;;1.00;;
9052;SDS011;4561;47.450;7.516;2024-03-23T14:44:24;4.70;;;1.40;;
9052;SDS011;4561;47.450;7.516;2024-03-23T14:47:45;4.13;;;1.03;;
9052;SDS011;4561;47.450;7.516;2024-03-23T14:51:10;2.90;;;1.40;;
9052;SDS011;4561;47.450;7.516;2024-03-23T14:54:30;2.13;;;1.10;;
9052;SDS011;4561;47.450;7.516;2024-03-23T14:57:51;3.40;;;1.57;;
9052;SDS011;4561;47.450;7.516;2024-03-23T15:01:14;2.43;;;1.27;;
9052;SDS011;4561;47.450;7.516;2024-03-23T15:04:34;3.30;;;1.27;;
9052;SDS011;4561;47.450;7.516;2024-03-23T15:07:57;3.90;;;1.20;;
9052;SDS011;4561;47.450;7.516;2024-03-23T15:11:18;3.37;;;0.90;;
9052;SDS011;4561;47.450;7.516;2024-03-23T15:14:39;2.83;;;1.17;;
9052;SDS011;4561;47.450;7.516;2024-03-23T15:18:03;6.00;;;1.50;;
9052;SDS011;4561;47.450;7.516;2024-03-23T15:21:26;3.70;;;1.30;;
9052;SDS011;4561;47.450;7.516;2024-03-23T15:24:46;3.10;;;1.10;;
9052;SDS011;4561;47.450;7.516;2024-03-23T15:28:06;3.77;;;1.30;;
9052;SDS011;4561;47.450;7.516;2024-03-23T15:31:29;2.77;;;1.20;;
9052;SDS011;4561;47.450;7.516;2024-03-23T15:34:51;4.53;;;1.37;;
9052;SDS011;4561;47.450;7.516;2024-03-23T15:38:12;2.60;;;1.07;;
9052;SDS011;4561;47.450;7.516;2024-03-23T15:41:32;3.83;;;1.30;;
9052;SDS011;4561;47.450;7.516;2024-03-23T15:44:55;3.47;;;1.47;;
9052;SDS011;4561;47.450;7.516;2024-03-23T15:48:16;2.93;;;1.40;;
9052;SDS011;4561;47.450;7.516;2024-03-23T15:51:38;5.50;;;1.40;;
9052;SDS011;4561;47.450;7.516;2024-03-23T15:55:04;5.33;;;1.37;;
9052;SDS011;4561;47.450;7.516;2024-03-23T15:58:28;3.80;;;1.40;;
9052;SDS011;4561;47.450;7.516;2024-03-23T16:01:52;4.13;;;1.37;;
9052;SDS011;4561;47.450;7.516;2024-03-23T16:05:12;4.93;;;1.37;;
9052;SDS011;4561;47.450;7.516;2024-03-23T16:08:38;3.27;;;1.17;;
9052;SDS011;4561;47.450;7.516;2024-03-23T16:11:58;5.57;;;1.43;;
9052;SDS011;4561;47.450;7.516;2024-03-23T16:15:21;4.07;;;1.43;;
9052;SDS011;4561;47.450;7.516;2024-03-23T16:18:44;5.07;;;1.40;;
9052;SDS011;4561;47.450;7.516;2024-03-23T16:22:05;6.33;;;1.43;;
9052;SDS011;4561;47.450;7.516;2024-03-23T16:25:26;4.33;;;1.07;;
9052;SDS011;4561;47.450;7.516;2024-03-23T16:28:46;2.93;;;1.20;;
9052;SDS011;4561;47.450;7.516;2024-03-23T16:32:08;5.40;;;1.30;;
9052;SDS011;4561;47.450;7.516;2024-03-23T16:35:28;2.37;;;1.33;;
9052;SDS011;4561;47.450;7.516;2024-03-23T16:38:49;2.93;;;1.40;;
9052;SDS011;4561;47.450;7.516;2024-03-23T16:42:11;5.00;;;2.03;;
9052;SDS011;4561;47.450;7.516;2024-03-23T16:45:34;4.70;;;1.43;;
9052;SDS011;4561;47.450;7.516;2024-03-23T16:48:54;6.83;;;1.70;;
9052;SDS011;4561;47.450;7.516;2024-03-23T16:52:15;4.17;;;1.83;;
9052;SDS011;4561;47.450;7.516;2024-03-23T16:55:36;5.50;;;1.63;;
9052;SDS011;4561;47.450;7.516;2024-03-23T16:58:56;3.57;;;1.23;;
9052;SDS011;4561;47.450;7.516;2024-03-23T17:02:16;2.17;;;1.10;;
9052;SDS011;4561;47.450;7.516;2024-03-23T17:05:38;4.30;;;1.23;;
9052;SDS011;4561;47.450;7.516;2024-03-23T17:08:58;2.93;;;1.20;;
9052;SDS011;4561;47.450;7.516;2024-03-23T17:12:19;1.87;;;1.10;;
9052;SDS011;4561;47.450;7.516;2024-03-23T17:15:43;3.83;;;1.20;;
9052;SDS011;4561;47.450;7.516;2024-03-23T17:19:06;2.80;;;0.97;;
9052;SDS011;4561;47.450;7.516;2024-03-23T17:22:28;3.27;;;1.10;;
9052;SDS011;4561;47.450;7.516;2024-03-23T17:25:48;3.40;;;1.23;;
9052;SDS011;4561;47.450;7.516;2024-03-23T17:29:11;4.03;;;1.23;;
9052;SDS011;4561;47.450;7.516;2024-03-23T17:32:32;3.20;;;1.17;;
9052;SDS011;4561;47.450;7.516;2024-03-23T17:35:52;4.07;;;1.07;;
9052;SDS011;4561;47.450;7.516;2024-03-23T17:39:15;2.70;;;1.20;;
9052;SDS011;4561;47.450;7.516;2024-03-23T17:42:35;3.20;;;1.33;;
9052;SDS011;4561;47.450;7.516;2024-03-23T17:45:57;7.63;;;4.87;;
9052;SDS011;4561;47.450;7.516;2024-03-23T17:49:17;3.57;;;1.60;;
9052;SDS011;4561;47.450;7.516;2024-03-23T17:52:42;3.70;;;1.30;;
9052;SDS011;4561;47.450;7.516;2024-03-23T17:56:05;2.53;;;0.90;;
9052;SDS011;4561;47.450;7.516;2024-03-23T17:59:29;1.43;;;0.83;;
9052;SDS011;4561;47.450;7.516;2024-03-23T18:02:49;3.20;;;0.97;;
9052;SDS011;4561;47.450;7.516;2024-03-23T18:06:10;2.43;;;0.70;;
9052;SDS011;4561;47.450;7.516;2024-03-23T18:09:30;2.37;;;2.07;;
9052;SDS011;4561;47.450;7.516;2024-03-23T18:12:50;2.43;;;0.90;;
9052;SDS011;4561;47.450;7.516;2024-03-23T18:16:11;2.33;;;0.90;;
9052;SDS011;4561;47.450;7.516;2024-03-23T18:19:31;1.97;;;0.97;;
9052;SDS011;4561;47.450;7.516;2024-03-23T18:22:52;1.10;;;0.80;;
9052;SDS011;4561;47.450;7.516;2024-03-23T18:26:12;1.20;;;0.70;;
9052;SDS011;4561;47.450;7.516;2024-03-23T18:29:33;2.07;;;1.10;;
9052;SDS011;4561;47.450;7.516;2024-03-23T18:32:53;1.83;;;1.03;;
9052;SDS011;4561;47.450;7.516;2024-03-23T18:36:13;1.70;;;0.60;;
9052;SDS011;4561;47.450;7.516;2024-03-23T18:39:37;2.87;;;1.90;;
9052;SDS011;4561;47.450;7.516;2024-03-23T18:42:57;1.63;;;0.80;;
9052;SDS011;4561;47.450;7.516;2024-03-23T18:46:19;1.67;;;0.80;;
9052;SDS011;4561;47.450;7.516;2024-03-23T18:49:40;2.67;;;1.20;;
9052;SDS011;4561;47.450;7.516;2024-03-23T18:53:00;2.60;;;0.87;;
9052;SDS011;4561;47.450;7.516;2024-03-23T18:56:22;2.97;;;0.83;;
9052;SDS011;4561;47.450;7.516;2024-03-23T18:59:42;1.23;;;0.80;;
9052;SDS011;4561;47.450;7.516;2024-03-23T19:03:02;2.07;;;0.90;;
9052;SDS011;4561;47.450;7.516;2024-03-23T19:06:23;2.50;;;1.10;;
9052;SDS011;4561;47.450;7.516;2024-03-23T19:09:43;11.17;;;8.10;;
9052;SDS011;4561;47.450;7.516;2024-03-23T19:13:04;7.63;;;4.43;;
9052;SDS011;4561;47.450;7.516;2024-03-23T19:16:24;3.33;;;2.20;;
9052;SDS011;4561;47.450;7.516;2024-03-23T19:19:45;2.37;;;1.73;;
9052;SDS011;4561;47.450;7.516;2024-03-23T19:23:05;2.23;;;1.20;;
9052;SDS011;4561;47.450;7.516;2024-03-23T19:26:30;2.10;;;0.80;;
9052;SDS011;4561;47.450;7.516;2024-03-23T19:29:51;2.43;;;0.90;;
9052;SDS011;4561;47.450;7.516;2024-03-23T19:33:11;4.47;;;1.20;;
9052;SDS011;4561;47.450;7.516;2024-03-23T19:36:32;1.43;;;0.57;;
9052;SDS011;4561;47.450;7.516;2024-03-23T19:39:52;1.53;;;0.70;;
9052;SDS011;4561;47.450;7.516;2024-03-23T19:43:12;1.80;;;0.73;;
9052;SDS011;4561;47.450;7.516;2024-03-23T19:46:33;2.30;;;0.80;;
9052;SDS011;4561;47.450;7.516;2024-03-23T19:49:55;1.17;;;0.87;;
9052;SDS011;4561;47.450;7.516;2024-03-23T19:53:16;2.10;;;0.70;;
9052;SDS011;4561;47.450;7.516;2024-03-23T19:56:36;1.80;;;0.60;;
9052;SDS011;4561;47.450;7.516;2024-03-23T19:59:57;2.50;;;0.70;;
9052;SDS011;4561;47.450;7.516;2024-03-23T20:03:18;0.90;;;0.50;;
9052;SDS011;4561;47.450;7.516;2024-03-23T20:06:38;1.13;;;0.60;;
9052;SDS011;4561;47.450;7.516;2024-03-23T20:09:59;0.90;;;0.70;;
9052;SDS011;4561;47.450;7.516;2024-03-23T20:13:19;1.30;;;0.70;;
9052;SDS011;4561;47.450;7.516;2024-03-23T20:16:40;1.13;;;0.80;;
9052;SDS011;4561;47.450;7.516;2024-03-23T20:20:00;0.83;;;0.50;;
9052;SDS011;4561;47.450;7.516;2024-03-23T20:23:21;1.10;;;0.60;;
9052;SDS011;4561;47.450;7.516;2024-03-23T20:26:44;0.90;;;0.80;;
9052;SDS011;4561;47.450;7.516;2024-03-23T20:30:05;1.53;;;0.70;;
9052;SDS011;4561;47.450;7.516;2024-03-23T20:33:27;0.60;;;0.60;;
9052;SDS011;4561;47.450;7.516;2024-03-23T20:36:47;0.60;;;0.50;;
9052;SDS011;4561;47.450;7.516;2024-03-23T20:40:08;1.60;;;0.60;;
9052;SDS011;4561;47.450;7.516;2024-03-23T20:43:28;2.03;;;1.00;;
9052;SDS011;4561;47.450;7.516;2024-03-23T20:46:49;0.80;;;0.70;;
9052;SDS011;4561;47.450;7.516;2024-03-23T20:50:12;1.37;;;0.77;;
9052;SDS011;4561;47.450;7.516;2024-03-23T20:53:36;1.80;;;1.00;;
9052;SDS011;4561;47.450;7.516;2024-03-23T20:56:57;3.77;;;2.30;;
9052;SDS011;4561;47.450;7.516;2024-03-23T21:00:17;4.43;;;3.13;;
9052;SDS011;4561;47.450;7.516;2024-03-23T21:03:37;4.30;;;2.97;;
9052;SDS011;4561;47.450;7.516;2024-03-23T21:06:58;1.97;;;0.93;;
9052;SDS011;4561;47.450;7.516;2024-03-23T21:10:20;1.00;;;0.80;;
9052;SDS011;4561;47.450;7.516;2024-03-23T21:13:40;1.03;;;0.60;;
9052;SDS011;4561;47.450;7.516;2024-03-23T21:17:00;1.57;;;0.70;;
9052;SDS011;4561;47.450;7.516;2024-03-23T21:20:23;1.63;;;0.67;;
9052;SDS011;4561;47.450;7.516;2024-03-23T21:23:43;1.47;;;0.70;;
9052;SDS011;4561;47.450;7.516;2024-03-23T21:27:04;0.70;;;0.70;;
9052;SDS011;4561;47.450;7.516;2024-03-23T21:30:24;3.03;;;0.80;;
9052;SDS011;4561;47.450;7.516;2024-03-23T21:33:44;1.70;;;0.83;;
9052;SDS011;4561;47.450;7.516;2024-03-23T21:37:05;3.03;;;0.97;;
9052;SDS011;4561;47.450;7.516;2024-03-23T21:40:27;2.03;;;0.87;;
9052;SDS011;4561;47.450;7.516;2024-03-23T21:43:48;2.30;;;1.47;;
9052;SDS011;4561;47.450;7.516;2024-03-23T21:47:08;3.63;;;1.40;;
9052;SDS011;4561;47.450;7.516;2024-03-23T21:50:28;4.80;;;1.10;;
9052;SDS011;4561;47.450;7.516;2024-03-23T21:53:50;2.60;;;1.10;;